Time;durP1;ratioP1;P1;durP2;ratioP2;P2;SDS_P1;SDS_P2;PMS_P1;PMS_P2;Temp;Humidity;BMP_temperature;BMP_pressure;BME280_temperature;BME280_humidity;BME280_pressure;Samples;Min_cycle;Max_cycle;Signal;HPM_P1;HPM_P2
2023/05/15 00:00:11;;;;;;;0.50;0.50;;;;;;;9.75;94.85;96501.25;29395;418;63009;-57
2023/05/15 00:00:43;;;;;;;0.50;0.50;;;;;;;9.75;94.89;96501.25;29394;364;64009;-57
2023/05/15 00:01:15;;;;;;;0.50;0.50;;;;;;;9.74;95.00;96499.62;29395;332;63009;-57
2023/05/15 00:01:46;;;;;;;0.50;0.50;;;;;;;9.74;95.13;96492.31;29395;197;63005;-57
2023/05/15 00:02:17;;;;;;;0.50;0.50;;;;;;;9.74;94.87;96495.03;29395;203;63009;-59
2023/05/15 00:02:48;;;;;;;0.50;0.50;;;;;;;9.74;94.95;96491.50;29395;240;63005;-57
2023/05/15 00:03:20;;;;;;;0.50;0.50;;;;;;;9.74;94.75;96486.09;29395;365;63009;-59
2023/05/15 00:03:51;;;;;;;0.50;0.50;;;;;;;9.74;94.77;96495.03;29395;238;63004;-57
2023/05/15 00:04:25;;;;;;;0.50;0.50;;;;;;;9.75;95.20;96485.00;29395;492;63009;-60
2023/05/15 00:04:57;;;;;;;0.50;0.50;;;;;;;9.75;94.77;96495.81;29395;196;63004;-59
2023/05/15 00:05:28;;;;;;;0.50;0.50;;;;;;;9.74;94.81;96495.03;29394;244;64013;-57
2023/05/15 00:06:00;;;;;;;0.50;0.50;;;;;;;9.75;94.68;96488.50;29395;406;63004;-58
2023/05/15 00:06:31;;;;;;;0.50;0.50;;;;;;;9.74;94.99;96491.50;29395;284;63025;-59
2023/05/15 00:07:02;;;;;;;0.50;0.50;;;;;;;9.75;94.72;96495.81;29395;205;63005;-57
2023/05/15 00:07:35;;;;;;;0.50;0.50;;;;;;;9.74;94.79;96486.91;29395;256;63009;-58
2023/05/15 00:08:06;;;;;;;0.50;0.50;;;;;;;9.73;94.64;96498.84;29395;199;63005;-57
2023/05/15 00:08:37;;;;;;;0.50;0.50;;;;;;;9.74;94.64;96491.50;29395;250;63024;-57
2023/05/15 00:09:09;;;;;;;0.50;0.50;;;;;;;9.74;94.57;96492.31;29395;205;63010;-58
2023/05/15 00:09:41;;;;;;;0.50;0.50;;;;;;;9.75;94.65;96495.81;29395;265;63009;-57
2023/05/15 00:10:12;;;;;;;0.50;0.50;;;;;;;9.75;94.96;96490.41;29395;225;63005;-57
2023/05/15 00:10:44;;;;;;;0.50;0.50;;;;;;;9.76;95.16;96486.59;29394;266;64013;-57
2023/05/15 00:11:15;;;;;;;0.50;0.50;;;;;;;9.75;94.72;96487.69;29394;284;64009;-57
2023/05/15 00:11:46;;;;;;;0.50;0.50;;;;;;;9.75;94.99;96490.41;29395;244;63009;-58
2023/05/15 00:12:18;;;;;;;0.50;0.50;;;;;;;9.75;95.12;96496.63;29394;204;64009;-57
2023/05/15 00:12:49;;;;;;;0.50;0.50;;;;;;;9.76;94.97;96492.03;29395;209;63009;-57
2023/05/15 00:13:21;;;;;;;0.50;0.50;;;;;;;9.74;94.90;96481.47;29394;225;64009;-59
2023/05/15 00:13:52;;;;;;;0.50;0.50;;;;;;;9.75;94.59;96501.25;29395;220;63008;-58
2023/05/15 00:14:24;;;;;;;0.50;0.50;;;;;;;9.74;95.07;96483.38;29395;220;63005;-57
2023/05/15 00:14:55;;;;;;;0.50;0.50;;;;;;;9.74;95.13;96491.50;29395;268;63009;-57
2023/05/15 00:15:26;;;;;;;0.50;0.50;;;;;;;9.75;94.87;96485.00;29395;268;63005;-57
2023/05/15 00:15:57;;;;;;;0.50;0.50;;;;;;;9.75;94.95;96485.78;29395;273;63009;-58
2023/05/15 00:16:29;;;;;;;0.50;0.50;;;;;;;9.75;94.74;96480.37;29394;240;64009;-58
2023/05/15 00:17:00;;;;;;;0.50;0.50;;;;;;;9.76;94.84;96483.88;29395;271;63009;-57
2023/05/15 00:17:32;;;;;;;0.50;0.50;;;;;;;9.76;94.82;96481.19;29395;222;63008;-57
2023/05/15 00:18:04;;;;;;;0.50;0.50;;;;;;;9.76;94.92;96481.19;29395;468;63020;-57
2023/05/15 00:18:36;;;;;;;0.50;0.50;;;;;;;9.77;94.94;96481.97;29395;197;63004;-57
2023/05/15 00:19:08;;;;;;;0.50;0.50;;;;;;;9.76;94.87;96481.19;29395;197;63022;-57
2023/05/15 00:19:39;;;;;;;0.50;0.50;;;;;;;9.78;95.19;96478.19;29395;244;63004;-59
2023/05/15 00:20:11;;;;;;;0.50;0.50;;;;;;;9.78;94.73;96484.41;29395;197;63009;-58
2023/05/15 00:20:42;;;;;;;0.50;0.50;;;;;;;9.78;94.69;96478.97;29395;458;63006;-57
2023/05/15 00:21:13;;;;;;;0.50;0.50;;;;;;;9.79;94.82;96486.00;29395;378;63008;-58
2023/05/15 00:21:44;;;;;;;0.50;0.50;;;;;;;9.78;94.77;96487.09;29394;462;64008;-57
2023/05/15 00:22:16;;;;;;;0.50;0.50;;;;;;;9.77;94.66;96481.97;29395;199;63009;-57
2023/05/15 00:22:47;;;;;;;0.50;0.50;;;;;;;9.79;94.69;96479.78;29395;285;63005;-57
2023/05/15 00:23:18;;;;;;;0.50;0.50;;;;;;;9.77;94.71;96482.78;29395;331;63009;-57
2023/05/15 00:23:52;;;;;;;0.50;0.50;;;;;;;9.77;94.92;96477.38;29395;226;63005;-57
2023/05/15 00:24:24;;;;;;;0.50;0.50;;;;;;;9.78;94.47;96489.81;29395;301;63009;-57
2023/05/15 00:24:55;;;;;;;0.50;0.50;;;;;;;9.79;94.87;96483.31;29395;287;63005;-58
2023/05/15 00:25:26;;;;;;;0.50;0.50;;;;;;;9.78;94.45;96478.19;29395;413;63009;-58
2023/05/15 00:25:57;;;;;;;0.50;0.50;;;;;;;9.79;94.57;96480.59;29395;202;63005;-57
2023/05/15 00:26:29;;;;;;;0.50;0.50;;;;;;;9.79;94.99;96477.88;29395;235;63009;-58
2023/05/15 00:27:01;;;;;;;0.50;0.50;;;;;;;9.81;94.86;96477.59;29394;249;64009;-59
2023/05/15 00:27:32;;;;;;;0.50;0.50;;;;;;;9.80;94.76;96471.34;29395;265;63009;-58
2023/05/15 00:28:04;;;;;;;0.50;0.50;;;;;;;9.81;95.00;96478.38;29395;342;63004;-57
2023/05/15 00:28:35;;;;;;;0.50;0.50;;;;;;;9.81;94.76;96472.97;29395;412;63008;-57
2023/05/15 00:29:09;;;;;;;0.50;0.50;;;;;;;9.82;94.71;96480.00;29394;510;64008;-57
2023/05/15 00:29:41;;;;;;;0.50;0.50;;;;;;;9.82;94.68;96480.00;29395;246;63009;-59
2023/05/15 00:30:13;;;;;;;0.50;0.50;;;;;;;9.83;94.61;96478.09;29395;220;63005;-59
2023/05/15 00:30:44;;;;;;;0.43;0.43;;;;;;;9.83;94.52;96470.75;29395;238;63009;-56
2023/05/15 00:31:16;;;;;;;0.50;0.50;;;;;;;9.84;94.72;96477.00;29395;218;63005;-58
2023/05/15 00:31:47;;;;;;;0.50;0.50;;;;;;;9.84;94.59;96475.09;29395;198;63009;-57
2023/05/15 00:32:18;;;;;;;0.50;0.50;;;;;;;9.83;94.52;96473.47;29395;244;63005;-57
2023/05/15 00:32:50;;;;;;;0.50;0.50;;;;;;;9.84;94.31;96472.37;29395;225;63019;-57
2023/05/15 00:33:21;;;;;;;0.50;0.50;;;;;;;9.84;94.39;96471.56;29395;297;63009;-58
2023/05/15 00:33:53;;;;;;;0.50;0.50;;;;;;;9.85;94.50;96473.19;29395;232;63009;-59
2023/05/15 00:34:24;;;;;;;0.50;0.50;;;;;;;9.84;94.49;96475.09;29394;210;64009;-57
2023/05/15 00:34:56;;;;;;;0.50;0.50;;;;;;;9.85;94.60;96473.97;29394;271;64013;-57
2023/05/15 00:35:27;;;;;;;0.50;0.50;;;;;;;9.85;94.04;96479.41;29395;218;63004;-57
2023/05/15 00:35:59;;;;;;;0.50;0.50;;;;;;;9.86;94.45;96472.06;29395;211;63025;-57
2023/05/15 00:36:31;;;;;;;0.50;0.50;;;;;;;9.86;94.19;96474.78;29395;343;63004;-58
2023/05/15 00:37:02;;;;;;;0.50;0.50;;;;;;;9.86;94.44;96470.16;29395;228;63009;-57
2023/05/15 00:37:33;;;;;;;0.50;0.50;;;;;;;9.85;94.30;96473.97;29394;223;64005;-58
2023/05/15 00:38:04;;;;;;;0.50;0.50;;;;;;;9.85;94.07;96471.28;29395;229;63009;-58
2023/05/15 00:38:36;;;;;;;0.50;0.50;;;;;;;9.84;94.40;96475.09;29395;219;63015;-57
2023/05/15 00:39:07;;;;;;;0.50;0.50;;;;;;;9.84;94.33;96472.37;29395;214;63009;-57
2023/05/15 00:39:39;;;;;;;0.50;0.50;;;;;;;9.85;94.05;96473.19;29394;283;64009;-57
2023/05/15 00:40:14;;;;;;;0.50;0.50;;;;;;;9.84;94.71;96469.66;29395;404;63009;-58
2023/05/15 00:40:46;;;;;;;0.50;0.50;;;;;;;9.85;94.56;96467.75;29395;268;63004;-57
2023/05/15 00:41:18;;;;;;;0.50;0.50;;;;;;;9.85;94.57;96468.56;29395;204;63009;-58
2023/05/15 00:41:51;;;;;;;0.50;0.50;;;;;;;9.86;94.78;96470.16;29395;240;63004;-59
2023/05/15 00:42:24;;;;;;;0.50;0.50;;;;;;;9.86;94.39;96467.47;29395;259;63009;-58
2023/05/15 00:42:57;;;;;;;0.50;0.50;;;;;;;9.88;94.49;96467.16;29395;241;63004;-58
2023/05/15 00:43:29;;;;;;;0.40;0.40;;;;;;;9.87;94.48;96466.38;29395;254;63008;-57
2023/05/15 00:44:02;;;;;;;0.50;0.50;;;;;;;9.86;94.18;96461.25;29394;242;64009;-60
2023/05/15 00:44:35;;;;;;;0.50;0.50;;;;;;;9.86;94.45;96463.94;29395;199;63009;-57
2023/05/15 00:45:09;;;;;;;0.50;0.50;;;;;;;9.86;94.22;96463.94;29395;232;63005;-57
2023/05/15 00:45:42;;;;;;;0.50;0.50;;;;;;;9.86;94.10;96461.25;29395;222;63009;-57
2023/05/15 00:46:14;;;;;;;0.50;0.50;;;;;;;9.87;94.28;96455.53;29395;271;63005;-58
2023/05/15 00:46:46;;;;;;;0.50;0.50;;;;;;;9.88;94.52;96459.03;29395;200;63009;-57
2023/05/15 00:47:19;;;;;;;0.50;0.50;;;;;;;9.86;94.20;96453.91;29395;261;63005;-57
2023/05/15 00:47:52;;;;;;;0.50;0.50;;;;;;;9.87;94.12;96455.53;29395;294;63009;-57
2023/05/15 00:48:24;;;;;;;0.50;0.50;;;;;;;9.86;94.20;96462.03;29395;328;63004;-57
2023/05/15 00:48:56;;;;;;;0.50;0.50;;;;;;;9.87;94.16;96460.12;29395;232;63009;-59
2023/05/15 00:49:31;;;;;;;0.50;0.50;;;;;;;9.87;94.17;96460.12;29394;222;64009;-58
2023/05/15 00:50:07;;;;;;;0.50;0.50;;;;;;;9.87;94.08;96455.53;29395;317;63009;-58
2023/05/15 00:50:42;;;;;;;0.50;0.50;;;;;;;9.87;94.51;96454.72;29395;401;63004;-58
2023/05/15 00:51:17;;;;;;;0.50;0.50;;;;;;;9.89;94.57;96458.75;29395;228;63021;-58
2023/05/15 00:51:52;;;;;;;0.50;0.50;;;;;;;9.89;94.58;96458.75;29395;257;63005;-57
2023/05/15 00:52:23;;;;;;;0.50;0.50;;;;;;;9.90;94.57;96460.34;29395;225;63009;-57
2023/05/15 00:52:55;;;;;;;0.50;0.50;;;;;;;9.90;94.78;96454.13;29394;321;64009;-58
2023/05/15 00:53:27;;;;;;;0.50;0.50;;;;;;;9.92;94.53;96454.63;29395;241;63009;-57
2023/05/15 00:53:59;;;;;;;0.50;0.50;;;;;;;9.92;94.23;96458.16;29394;219;64009;-57
2023/05/15 00:54:30;;;;;;;0.50;0.50;;;;;;;9.92;94.31;96452.72;29395;233;63009;-57
2023/05/15 00:55:02;;;;;;;0.40;0.40;;;;;;;9.90;94.14;96460.34;29395;232;63005;-57
2023/05/15 00:55:35;;;;;;;0.50;0.50;;;;;;;9.90;94.10;96460.34;29395;198;63009;-58
2023/05/15 00:56:08;;;;;;;0.50;0.50;;;;;;;9.92;94.12;96457.34;29395;440;63010;-57
2023/05/15 00:56:42;;;;;;;0.50;0.50;;;;;;;9.92;94.12;96458.16;29395;282;63009;-56
2023/05/15 00:57:15;;;;;;;0.50;0.50;;;;;;;9.92;93.60;96457.34;29395;338;63004;-56
2023/05/15 00:57:47;;;;;;;0.50;0.50;;;;;;;9.90;93.40;96460.34;29395;198;63009;-56
2023/05/15 00:58:21;;;;;;;0.50;0.50;;;;;;;9.88;93.85;96462.56;29395;316;63004;-57
2023/05/15 00:58:54;;;;;;;0.50;0.50;;;;;;;9.87;93.97;96460.94;29395;218;63009;-57
2023/05/15 00:59:30;;;;;;;0.50;0.50;;;;;;;9.87;93.49;96460.94;29394;197;64009;-57
2023/05/15 01:00:09;;;;;;;0.50;0.50;;;;;;;9.88;93.88;96462.56;29395;415;63009;-57
2023/05/15 01:00:42;;;;;;;0.50;0.50;;;;;;;9.89;94.44;96464.16;29395;256;63005;-57
2023/05/15 01:01:16;;;;;;;0.50;0.50;;;;;;;9.88;94.46;96467.16;29395;293;63009;-57
2023/05/15 01:01:47;;;;;;;0.50;0.50;;;;;;;9.88;94.19;96467.97;29394;227;64009;-57
2023/05/15 01:02:18;;;;;;;0.50;0.50;;;;;;;9.88;94.37;96464.47;29395;197;63024;-57
2023/05/15 01:02:50;;;;;;;0.50;0.50;;;;;;;9.88;94.42;96462.56;29395;393;63008;-57
2023/05/15 01:03:21;;;;;;;0.50;0.50;;;;;;;9.89;94.43;96463.34;29395;378;63009;-57
2023/05/15 01:03:53;;;;;;;0.50;0.50;;;;;;;9.89;94.86;96466.06;29395;197;63004;-57
2023/05/15 01:04:24;;;;;;;0.50;0.50;;;;;;;9.86;94.87;96464.75;29395;199;63009;-57
2023/05/15 01:04:55;;;;;;;0.50;0.50;;;;;;;9.86;94.47;96464.75;29395;212;63017;-57
2023/05/15 01:05:30;;;;;;;0.50;0.50;;;;;;;9.86;94.66;96464.75;29395;197;63009;-58
2023/05/15 01:06:03;;;;;;;0.50;0.50;;;;;;;9.87;94.65;96471.78;29395;210;63004;-56
2023/05/15 01:06:37;;;;;;;0.50;0.50;;;;;;;9.88;94.83;96462.56;29394;197;64014;-57
2023/05/15 01:07:09;;;;;;;0.50;0.50;;;;;;;9.88;94.80;96459.84;29395;258;63005;-57
2023/05/15 01:08:07;;;;;;;0.50;0.50;;;;;;;9.88;94.81;96465.25;29395;220;63009;-57
2023/05/15 01:08:44;;;;;;;0.50;0.50;;;;;;;9.89;94.43;96466.88;29395;241;63005;-57
2023/05/15 01:09:18;;;;;;;0.50;0.50;;;;;;;9.88;94.97;96467.97;29395;209;63009;-58
2023/05/15 01:09:50;;;;;;;0.50;0.50;;;;;;;9.85;94.90;96468.56;29394;402;64009;-57
2023/05/15 01:10:22;;;;;;;0.50;0.50;;;;;;;9.81;95.81;96472.97;29395;214;63009;-59
2023/05/15 01:10:55;;;;;;;0.50;0.50;;;;;;;9.80;96.07;96465.94;29395;438;63004;-57
2023/05/15 01:11:34;;;;;;;0.50;0.50;;;;;;;9.79;96.58;96467.03;29395;199;63009;-58
2023/05/15 01:12:08;;;;;;;0.50;0.50;;;;;;;9.79;95.98;96466.25;29395;439;63004;-57
2023/05/15 01:12:43;;;;;;;0.50;0.50;;;;;;;9.78;96.09;96465.44;29395;301;63009;-58
2023/05/15 01:13:15;;;;;;;0.50;0.50;;;;;;;9.78;96.45;96468.12;29395;377;63004;-57
2023/05/15 01:13:46;;;;;;;0.50;0.50;;;;;;;9.77;96.46;96471.94;29395;424;63008;-57
2023/05/15 01:14:18;;;;;;;0.50;0.50;;;;;;;9.77;96.26;96468.44;29394;368;64009;-58
2023/05/15 01:14:49;;;;;;;0.50;0.50;;;;;;;9.76;96.70;96470.34;29395;211;63009;-57
2023/05/15 01:15:22;;;;;;;0.50;0.50;;;;;;;9.77;96.42;96471.16;29395;418;63016;-58
2023/05/15 01:15:54;;;;;;;0.50;0.50;;;;;;;9.76;96.52;96470.34;29395;220;63009;-58
2023/05/15 01:16:25;;;;;;;0.50;0.50;;;;;;;9.77;96.36;96477.38;29395;243;63005;-57
2023/05/15 01:16:57;;;;;;;0.50;0.50;;;;;;;9.79;96.70;96463.53;29395;198;63009;-57
2023/05/15 01:17:28;;;;;;;0.50;0.50;;;;;;;9.78;96.11;96472.75;29395;205;63007;-57
2023/05/15 01:18:00;;;;;;;0.50;0.50;;;;;;;9.76;96.19;96470.34;29395;237;63009;-58
2023/05/15 01:18:31;;;;;;;0.50;0.50;;;;;;;9.74;96.16;96467.13;29395;340;63009;-57
2023/05/15 01:19:04;;;;;;;0.50;0.50;;;;;;;9.74;96.13;96472.53;29395;223;63009;-58
2023/05/15 01:19:38;;;;;;;0.50;0.50;;;;;;;9.74;95.98;96472.53;29394;265;64009;-58
2023/05/15 01:20:17;;;;;;;0.50;0.50;;;;;;;9.70;95.93;96476.97;29395;353;63009;-57
2023/05/15 01:21:35;;;;;;;0.47;0.47;;;;;;;9.67;96.60;96472.16;29395;367;63004;-57
2023/05/15 01:33:49;;;;;;;0.50;0.50;;;;;;;9.66;98.81;96474.06;87885;200;204000;-57
2023/05/15 01:34:29;;;;;;;0.50;0.50;;;;;;;9.68;99.76;96471.03;29394;241;64009;-56
2023/05/15 01:35:29;;;;;;;0.50;0.50;;;;;;;9.68;98.92;96469.16;29394;241;64009;-57
2023/05/15 01:36:26;;;;;;;0.50;0.50;;;;;;;9.68;97.96;96479.19;29395;213;63009;-56
2023/05/15 01:37:02;;;;;;;0.50;0.50;;;;;;;9.67;97.65;96472.16;29394;229;64008;-57
2023/05/15 01:37:41;;;;;;;0.50;0.50;;;;;;;9.67;97.84;96466.72;29395;273;63008;-56
2023/05/15 01:38:26;;;;;;;0.50;0.50;;;;;;;9.65;97.85;96467.03;29395;198;63005;-56
2023/05/15 01:39:01;;;;;;;0.50;0.50;;;;;;;9.66;97.91;96465.13;29395;206;63023;-56
2023/05/15 01:39:34;;;;;;;0.50;0.50;;;;;;;9.65;98.15;96463.50;29395;296;63005;-57
2023/05/15 01:40:09;;;;;;;0.50;0.50;;;;;;;9.65;97.82;96468.94;29395;202;63009;-56
2023/05/15 01:40:43;;;;;;;0.50;0.50;;;;;;;9.65;97.93;96477.06;29395;390;63005;-56
2023/05/15 01:42:09;;;;;;;0.50;0.50;;;;;;;9.61;97.75;96473.31;29395;266;63009;-56
2023/05/15 01:42:48;;;;;;;0.50;0.50;;;;;;;9.64;97.18;96467.31;29394;267;64009;-56
2023/05/15 01:43:26;;;;;;;0.50;0.50;;;;;;;9.63;96.94;96466.53;29395;403;63009;-57
2023/05/15 01:44:14;;;;;;;0.50;0.50;;;;;;;9.63;96.78;96473.84;29395;259;63004;-57
2023/05/15 01:44:54;;;;;;;0.50;0.50;;;;;;;9.62;96.80;96472.22;29394;253;64014;-56
2023/05/15 01:45:30;;;;;;;0.50;0.50;;;;;;;9.63;96.52;96468.41;29417;244;63014;-56
2023/05/15 01:46:02;;;;;;;0.50;0.50;;;;;;;9.64;96.33;96472.75;29395;255;63009;-56
2023/05/15 01:46:38;;;;;;;0.50;0.50;;;;;;;9.64;96.01;96470.03;29395;203;63005;-56
2023/05/15 01:47:17;;;;;;;0.50;0.50;;;;;;;9.64;96.01;96465.41;29395;197;63009;-56
2023/05/15 01:47:51;;;;;;;0.50;0.50;;;;;;;9.65;95.73;96463.50;29395;236;63016;-56
2023/05/15 01:48:26;;;;;;;0.50;0.50;;;;;;;9.66;95.32;96465.13;29395;202;63009;-57
2023/05/15 01:49:00;;;;;;;0.50;0.50;;;;;;;9.68;94.84;96468.34;29395;387;63009;-56
2023/05/15 01:49:32;;;;;;;0.50;0.50;;;;;;;9.68;94.43;96462.91;29395;336;63009;-57
2023/05/15 01:50:10;;;;;;;0.50;0.50;;;;;;;9.70;93.91;96469.63;29394;287;64009;-57
2023/05/15 01:50:44;;;;;;;0.50;0.50;;;;;;;9.69;93.77;96464.53;29395;213;63009;-58
2023/05/15 01:51:17;;;;;;;0.50;0.50;;;;;;;9.69;93.74;96469.94;29395;201;63004;-58
2023/05/15 01:51:54;;;;;;;0.50;0.50;;;;;;;9.69;93.49;96472.66;29395;311;63008;-57
2023/05/15 01:52:39;;;;;;;0.50;0.50;;;;;;;9.70;93.84;96471.56;29395;199;63012;-57
2023/05/15 01:53:11;;;;;;;0.50;0.50;;;;;;;9.70;93.86;96460.72;29395;202;63019;-57
2023/05/15 01:53:48;;;;;;;0.50;0.50;;;;;;;9.70;94.40;96468.84;29395;399;63016;-57
2023/05/15 01:54:21;;;;;;;0.50;0.50;;;;;;;9.72;94.27;96466.63;29394;254;64013;-57
2023/05/15 01:54:55;;;;;;;0.50;0.50;;;;;;;9.71;94.01;96471.22;29395;324;63005;-57
2023/05/15 01:55:28;;;;;;;0.50;0.50;;;;;;;9.72;94.10;96461.19;29395;308;63009;-58
2023/05/15 01:56:05;;;;;;;0.50;0.50;;;;;;;9.73;93.87;96473.66;29395;289;63005;-57
2023/05/15 01:56:39;;;;;;;0.50;0.50;;;;;;;9.73;93.42;96465.50;29395;235;63018;-57
2023/05/15 01:57:12;;;;;;;0.50;0.50;;;;;;;9.71;93.45;96463.09;29395;223;63004;-59
2023/05/15 01:57:49;;;;;;;0.40;0.40;;;;;;;9.71;93.35;96465.00;29395;212;63009;-57
2023/05/15 01:58:22;;;;;;;0.50;0.50;;;;;;;9.71;93.31;96462.28;29395;319;63004;-59
2023/05/15 01:58:56;;;;;;;0.50;0.50;;;;;;;9.71;93.71;96467.72;29395;254;63008;-58
2023/05/15 01:59:29;;;;;;;0.50;0.50;;;;;;;9.71;94.12;96467.72;29394;224;64008;-58
2023/05/15 02:00:02;;;;;;;0.50;0.50;;;;;;;9.71;94.20;96467.72;29395;353;63009;-57
2023/05/15 02:00:35;;;;;;;0.50;0.50;;;;;;;9.70;93.83;96466.91;29395;495;63016;-58
2023/05/15 02:01:09;;;;;;;0.50;0.50;;;;;;;9.71;93.98;96465.00;29395;202;63009;-57
2023/05/15 02:01:43;;;;;;;0.50;0.50;;;;;;;9.72;94.26;96466.63;29395;338;63005;-57
2023/05/15 02:02:15;;;;;;;0.50;0.50;;;;;;;9.72;94.12;96463.91;29395;249;63009;-58
2023/05/15 02:02:48;;;;;;;0.50;0.50;;;;;;;9.72;94.12;96472.03;29395;383;63005;-58
2023/05/15 02:03:20;;;;;;;0.50;0.50;;;;;;;9.72;94.27;96469.31;29395;456;63009;-58
2023/05/15 02:03:53;;;;;;;0.50;0.50;;;;;;;9.69;94.21;96473.47;29395;290;63004;-58
2023/05/15 02:04:25;;;;;;;0.50;0.50;;;;;;;9.67;95.05;96472.16;29395;397;63009;-56
2023/05/15 02:04:57;;;;;;;0.50;0.50;;;;;;;9.65;94.88;96466.22;29394;227;64009;-57
2023/05/15 02:05:30;;;;;;;0.50;0.50;;;;;;;9.64;95.39;96464.63;29395;277;63009;-58
2023/05/15 02:06:04;;;;;;;0.50;0.50;;;;;;;9.62;95.77;96475.75;29395;250;63004;-57
2023/05/15 02:06:37;;;;;;;0.50;0.50;;;;;;;9.60;95.37;96464.41;29395;247;63008;-57
2023/05/15 02:07:08;;;;;;;0.50;0.50;;;;;;;9.62;95.18;96464.09;29395;246;63005;-58
2023/05/15 02:07:43;;;;;;;0.50;0.50;;;;;;;9.63;95.07;96477.34;29394;211;64014;-58
2023/05/15 02:08:15;;;;;;;0.50;0.50;;;;;;;9.62;95.30;96475.75;29395;274;63005;-57
2023/05/15 02:08:48;;;;;;;0.50;0.50;;;;;;;9.62;95.39;96464.09;29395;232;63009;-58
2023/05/15 02:09:21;;;;;;;0.50;0.50;;;;;;;9.62;95.18;96475.75;29395;244;63005;-58
2023/05/15 02:09:53;;;;;;;0.50;0.50;;;;;;;9.65;95.25;96474.34;29395;204;63029;-58
2023/05/15 02:10:25;;;;;;;0.82;0.82;;;;;;;9.65;95.27;96460.81;29395;199;63005;-56
2023/05/15 02:11:00;;;;;;;0.50;0.50;;;;;;;9.66;95.09;96470.53;29395;219;63009;-57
2023/05/15 02:11:32;;;;;;;0.50;0.50;;;;;;;9.66;95.27;96465.94;29395;199;63004;-57
2023/05/15 02:12:05;;;;;;;0.50;0.50;;;;;;;9.66;95.38;96462.41;29395;233;63009;-57
2023/05/15 02:12:40;;;;;;;0.50;0.50;;;;;;;9.65;95.36;96468.94;29395;199;63004;-56
2023/05/15 02:13:13;;;;;;;0.50;0.50;;;;;;;9.64;96.08;96467.31;29394;205;64013;-56
2023/05/15 02:13:45;;;;;;;0.50;0.50;;;;;;;9.61;96.10;96468.72;29395;338;63004;-57
2023/05/15 02:14:18;;;;;;;0.50;0.50;;;;;;;9.61;95.90;96468.72;29395;220;63008;-57
2023/05/15 02:14:50;;;;;;;0.43;0.43;;;;;;;9.61;95.90;96462.50;29395;251;63005;-57
2023/05/15 02:15:23;;;;;;;0.50;0.50;;;;;;;9.60;96.06;96466.31;29395;336;63009;-57
2023/05/15 02:15:55;;;;;;;0.50;0.50;;;;;;;9.59;96.18;96470.13;29395;246;63005;-57
2023/05/15 02:16:26;;;;;;;0.50;0.50;;;;;;;9.57;96.61;96475.03;29395;246;63009;-57
2023/05/15 02:16:58;;;;;;;0.50;0.50;;;;;;;9.56;96.24;96466.09;29395;283;63005;-57
2023/05/15 02:17:29;;;;;;;0.50;0.50;;;;;;;9.57;96.29;96472.31;29395;242;63009;-57
2023/05/15 02:18:01;;;;;;;0.50;0.50;;;;;;;9.56;96.44;96471.50;29395;219;63004;-56
2023/05/15 02:18:33;;;;;;;0.50;0.50;;;;;;;9.55;96.44;96469.91;29394;215;64013;-57
2023/05/15 02:19:07;;;;;;;0.50;0.50;;;;;;;9.55;96.52;96474.50;29395;241;63004;-57
2023/05/15 02:19:38;;;;;;;0.45;0.45;;;;;;;9.53;96.66;96476.72;29394;202;64013;-57
2023/05/15 02:20:10;;;;;;;0.50;0.50;;;;;;;9.53;96.74;96480.22;29395;312;63004;-57
2023/05/15 02:20:41;;;;;;;0.50;0.50;;;;;;;9.51;97.09;96484.31;29395;260;63008;-56
2023/05/15 02:21:13;;;;;;;0.50;0.50;;;;;;;9.50;97.23;96482.72;29395;199;63004;-57
2023/05/15 02:21:44;;;;;;;0.50;0.50;;;;;;;9.48;97.89;96482.19;29395;327;63008;-57
2023/05/15 02:22:15;;;;;;;0.50;0.50;;;;;;;9.47;97.85;96480.59;29395;259;63005;-57
2023/05/15 02:22:46;;;;;;;0.50;0.50;;;;;;;9.45;98.30;96475.47;29395;224;63009;-57
2023/05/15 02:23:19;;;;;;;0.50;0.50;;;;;;;9.45;98.18;96475.47;29395;418;63005;-57
2023/05/15 02:23:50;;;;;;;0.50;0.50;;;;;;;9.45;97.97;96480.09;29395;439;63009;-57
2023/05/15 02:24:21;;;;;;;0.50;0.50;;;;;;;9.43;97.81;96466.84;29395;238;63005;-56
2023/05/15 02:24:56;;;;;;;0.50;0.50;;;;;;;9.46;97.78;96476.28;29394;316;64013;-57
2023/05/15 02:25:51;;;;;;;0.45;0.45;;;;;;;9.46;97.49;96481.69;29395;404;63005;-56
2023/05/15 02:27:04;;;;;;;0.50;0.50;;;;;;;9.47;97.38;96477.88;29394;248;64013;-56
2023/05/15 02:27:50;;;;;;;0.50;0.50;;;;;;;9.49;97.61;96472.97;29395;224;63004;-57
2023/05/15 02:28:42;;;;;;;0.50;0.50;;;;;;;9.48;97.23;96474.06;29395;196;63008;-56
2023/05/15 02:29:30;;;;;;;0.50;0.50;;;;;;;9.47;97.05;96475.19;29417;226;63015;-56
2023/05/15 02:30:34;;;;;;;0.50;0.50;;;;;;;9.47;97.36;96472.47;29395;199;63009;-57
2023/05/15 02:31:16;;;;;;;0.50;0.50;;;;;;;9.44;97.25;96479.28;29395;257;63005;-57
2023/05/15 02:32:45;;;;;;;0.50;0.50;;;;;;;9.41;98.13;96472.53;29394;243;64013;-56
2023/05/15 02:33:30;;;;;;;0.50;0.50;;;;;;;9.39;98.00;96469.31;29394;240;64009;-57
2023/05/15 02:34:13;;;;;;;0.50;0.50;;;;;;;9.40;97.88;96472.84;29395;244;63009;-57
2023/05/15 02:35:13;;;;;;;0.50;0.50;;;;;;;9.40;97.48;96473.66;29395;220;63004;-56
2023/05/15 02:36:02;;;;;;;0.50;0.50;;;;;;;9.40;97.36;96467.44;29395;230;63008;-57
2023/05/15 02:36:39;;;;;;;0.50;0.50;;;;;;;9.40;97.43;96470.94;29395;227;63005;-57
2023/05/15 02:37:14;;;;;;;0.50;0.50;;;;;;;9.39;97.43;96472.03;29395;232;63009;-57
2023/05/15 02:37:48;;;;;;;0.50;0.50;;;;;;;9.37;97.35;96468.81;29395;208;63005;-57
2023/05/15 02:38:27;;;;;;;0.70;0.70;;;;;;;9.38;97.09;96469.63;29394;216;64013;-57
2023/05/15 02:38:59;;;;;;;0.50;0.50;;;;;;;9.38;97.16;96478.56;29395;210;63009;-57
2023/05/15 02:39:32;;;;;;;0.50;0.50;;;;;;;9.37;97.29;96478.84;29395;216;63009;-56
2023/05/15 02:40:09;;;;;;;0.50;0.50;;;;;;;9.33;97.14;96473.25;29395;268;63015;-56
2023/05/15 02:40:43;;;;;;;0.50;0.50;;;;;;;9.28;97.41;96470.59;29395;217;63009;-56
2023/05/15 02:41:18;;;;;;;0.70;0.70;;;;;;;9.26;97.15;96472.00;29395;257;63004;-57
2023/05/15 02:41:52;;;;;;;0.47;0.47;;;;;;;9.26;97.42;96472.81;29395;249;63009;-57
2023/05/15 02:42:26;;;;;;;0.50;0.50;;;;;;;9.26;97.57;96470.09;29395;198;63010;-57
2023/05/15 02:42:59;;;;;;;0.50;0.50;;;;;;;9.28;97.59;96476.03;29395;226;63024;-57
2023/05/15 02:43:31;;;;;;;0.50;0.50;;;;;;;9.29;97.50;96472.22;29394;209;64008;-57
2023/05/15 02:44:04;;;;;;;0.50;0.50;;;;;;;9.31;97.69;96474.63;29395;247;63009;-57
2023/05/15 02:44:38;;;;;;;0.50;0.50;;;;;;;9.30;97.47;96473.81;29395;217;63008;-57
2023/05/15 02:45:11;;;;;;;0.50;0.50;;;;;;;9.28;97.89;96476.03;29395;232;63009;-58
2023/05/15 02:45:46;;;;;;;0.40;0.40;;;;;;;9.25;97.67;96476.59;29395;231;63005;-57
2023/05/15 02:46:20;;;;;;;0.50;0.50;;;;;;;9.24;98.05;96477.72;29395;203;63018;-57
2023/05/15 02:46:53;;;;;;;0.50;0.50;;;;;;;9.24;98.19;96479.59;29395;216;63005;-57
2023/05/15 02:47:25;;;;;;;0.50;0.50;;;;;;;9.22;98.25;96476.38;29394;239;64013;-58
2023/05/15 02:47:58;;;;;;;0.50;0.50;;;;;;;9.23;98.40;96478.00;29395;225;63005;-58
2023/05/15 02:48:30;;;;;;;0.50;0.50;;;;;;;9.24;98.43;96474.19;29395;222;63009;-57
2023/05/15 02:49:02;;;;;;;0.50;0.50;;;;;;;9.25;98.25;96481.22;29395;264;63004;-57
2023/05/15 02:49:34;;;;;;;0.50;0.50;;;;;;;9.25;98.13;96475.81;29395;251;63009;-58
2023/05/15 02:50:07;;;;;;;0.50;0.50;;;;;;;9.25;98.41;96475.81;29395;224;63004;-57
2023/05/15 02:50:39;;;;;;;0.50;0.50;;;;;;;9.23;98.53;96473.38;29395;272;63023;-58
2023/05/15 02:51:10;;;;;;;0.50;0.50;;;;;;;9.22;99.07;96482.59;29395;230;63004;-58
2023/05/15 02:51:42;;;;;;;0.50;0.50;;;;;;;9.19;99.37;96472.37;29395;246;63009;-57
2023/05/15 02:52:13;;;;;;;0.50;0.50;;;;;;;9.18;99.49;96478.88;29394;265;64009;-58
2023/05/15 02:52:45;;;;;;;0.50;0.50;;;;;;;9.18;99.07;96478.88;29395;278;63009;-57
2023/05/15 02:53:16;;;;;;;0.50;0.50;;;;;;;9.18;99.37;96473.47;29395;232;63005;-56
2023/05/15 02:53:48;;;;;;;0.50;0.50;;;;;;;9.19;99.26;96471.56;29395;197;63009;-57
2023/05/15 02:54:20;;;;;;;0.50;0.50;;;;;;;9.20;98.90;96479.37;29395;230;63005;-57
2023/05/15 02:54:55;;;;;;;0.50;0.50;;;;;;;9.21;98.98;96481.00;29395;213;63009;-57
2023/05/15 02:55:26;;;;;;;0.50;0.50;;;;;;;9.21;98.77;96478.28;29395;260;63005;-56
2023/05/15 02:56:00;;;;;;;0.50;0.50;;;;;;;9.22;98.71;96477.19;29395;218;63009;-57
2023/05/15 02:56:31;;;;;;;0.50;0.50;;;;;;;9.24;98.93;96476.91;29395;321;63018;-57
2023/05/15 02:57:07;;;;;;;0.50;0.50;;;;;;;9.24;99.02;96480.41;29395;279;63009;-57
2023/05/15 02:57:41;;;;;;;0.50;0.50;;;;;;;9.23;98.81;96473.38;29394;212;64009;-57
2023/05/15 02:58:13;;;;;;;0.50;0.50;;;;;;;9.22;99.00;96474.47;29395;463;63004;-57